createdAt,value
2022-12-29T00:01:19.038Z,10.17
2022-12-29T00:03:45.265Z,10.30
2022-12-29T00:06:14.319Z,10.38
2022-12-29T00:08:41.201Z,10.24
2022-12-29T00:11:07.786Z,10.16
2022-12-29T00:13:33.972Z,10.07
2022-12-29T00:16:00.204Z,10.15
2022-12-29T00:18:26.372Z,10.29
2022-12-29T00:20:52.602Z,10.20
2022-12-29T00:23:22.102Z,10.07
2022-12-29T00:25:57.183Z,10.02
2022-12-29T00:28:23.392Z,10.09
2022-12-29T00:30:49.598Z,10.10
2022-12-29T00:33:15.756Z,10.09
2022-12-29T00:35:41.921Z,10.06
2022-12-29T00:38:08.091Z,10.08
2022-12-29T00:40:34.322Z,10.05
2022-12-29T00:43:00.512Z,9.98
2022-12-29T00:45:26.683Z,10.07
2022-12-29T00:47:52.830Z,10.09
2022-12-29T00:50:18.961Z,10.07
2022-12-29T00:52:45.077Z,10.38
2022-12-29T00:55:11.662Z,10.42
2022-12-29T00:57:37.815Z,10.66
2022-12-29T01:00:03.982Z,10.88
2022-12-29T01:02:30.240Z,10.97
2022-12-29T01:04:56.526Z,11.21
2022-12-29T01:07:22.676Z,11.40
2022-12-29T01:09:48.868Z,11.41
2022-12-29T01:12:15.058Z,11.43
2022-12-29T01:14:41.175Z,11.41
2022-12-29T01:17:07.423Z,11.50
2022-12-29T01:19:33.665Z,11.41
2022-12-29T01:22:00.156Z,11.46
2022-12-29T01:24:26.284Z,11.53
2022-12-29T01:26:52.490Z,11.60
2022-12-29T01:29:18.657Z,11.60
2022-12-29T01:31:44.833Z,11.82
2022-12-29T01:34:11.014Z,12.02
2022-12-29T01:36:37.163Z,12.16
2022-12-29T01:39:03.347Z,12.25
2022-12-29T01:41:29.474Z,12.19
2022-12-29T01:43:55.660Z,12.29
2022-12-29T01:46:21.886Z,12.26
2022-12-29T01:48:48.101Z,12.24
2022-12-29T01:51:14.238Z,12.23
2022-12-29T01:53:40.382Z,12.34
2022-12-29T01:56:06.519Z,12.25
2022-12-29T01:58:33.267Z,11.98
2022-12-29T02:01:00.517Z,11.71
2022-12-29T02:03:26.765Z,11.55
2022-12-29T02:05:52.960Z,11.45
2022-12-29T02:08:19.100Z,11.43
2022-12-29T02:10:45.307Z,11.54
2022-12-29T02:13:11.479Z,11.57
2022-12-29T02:15:37.678Z,11.67
2022-12-29T02:18:03.827Z,11.71
2022-12-29T02:20:30.139Z,11.70
2022-12-29T02:22:56.292Z,11.78
2022-12-29T02:25:22.428Z,11.89
2022-12-29T02:27:48.675Z,11.83
2022-12-29T02:30:14.809Z,11.86
2022-12-29T02:32:40.990Z,11.89
2022-12-29T02:35:07.106Z,11.98
2022-12-29T02:37:33.596Z,11.97
2022-12-29T02:40:00.322Z,11.89
2022-12-29T02:42:26.563Z,11.85
2022-12-29T02:44:52.690Z,11.75
2022-12-29T02:47:18.865Z,11.85
2022-12-29T02:49:45.020Z,11.89
2022-12-29T02:52:11.184Z,11.96
2022-12-29T02:54:37.348Z,12.01
2022-12-29T02:57:03.489Z,11.93
2022-12-29T02:59:29.668Z,11.97
2022-12-29T03:01:55.964Z,11.95
2022-12-29T03:04:22.236Z,11.97
2022-12-29T03:06:48.387Z,12.00
2022-12-29T03:09:18.432Z,11.99
2022-12-29T03:11:45.385Z,11.90
2022-12-29T03:14:11.518Z,11.86
2022-12-29T03:16:37.782Z,11.78
2022-12-29T03:19:03.994Z,11.77
2022-12-29T03:21:30.118Z,11.75
2022-12-29T03:23:56.304Z,11.74
2022-12-29T03:26:22.449Z,11.74
2022-12-29T03:28:48.618Z,11.67
2022-12-29T03:31:14.819Z,11.64
2022-12-29T03:33:40.997Z,11.60
2022-12-29T03:36:07.189Z,11.50
2022-12-29T03:38:33.600Z,11.52
2022-12-29T03:41:00.627Z,11.43
2022-12-29T03:43:26.791Z,11.50
2022-12-29T03:45:52.946Z,11.49
2022-12-29T03:48:19.142Z,11.61
2022-12-29T03:50:45.312Z,11.62
2022-12-29T03:53:11.460Z,11.61
2022-12-29T03:55:37.573Z,11.62
2022-12-29T03:58:03.758Z,11.61
2022-12-29T04:00:29.894Z,11.71
2022-12-29T04:02:56.253Z,11.72
2022-12-29T04:05:22.545Z,11.76
2022-12-29T04:07:48.741Z,11.83
2022-12-29T04:10:14.885Z,11.83
2022-12-29T04:12:41.057Z,11.82
2022-12-29T04:15:07.260Z,11.75
2022-12-29T04:17:33.584Z,11.72
2022-12-29T04:20:00.413Z,11.73
2022-12-29T04:22:26.537Z,11.82
2022-12-29T04:24:52.684Z,11.89
2022-12-29T04:27:18.876Z,11.92
2022-12-29T04:29:45.136Z,11.96
2022-12-29T04:32:11.279Z,11.97
2022-12-29T04:34:37.461Z,11.97
2022-12-29T04:37:03.664Z,11.91
2022-12-29T04:39:29.790Z,12.05
2022-12-29T04:41:55.954Z,11.95
2022-12-29T04:44:22.104Z,11.99
2022-12-29T04:46:48.263Z,12.02
2022-12-29T04:49:14.416Z,12.08
2022-12-29T04:51:40.528Z,12.06
2022-12-29T04:54:06.717Z,12.04
2022-12-29T04:56:32.911Z,12.03
2022-12-29T04:58:59.042Z,12.03
2022-12-29T05:01:25.258Z,11.94
2022-12-29T05:03:51.547Z,11.98
2022-12-29T05:06:17.772Z,11.95
2022-12-29T05:08:44.827Z,11.97
2022-12-29T05:11:10.977Z,12.10
2022-12-29T05:13:38.229Z,12.01
2022-12-29T05:16:04.448Z,12.08
2022-12-29T05:18:30.655Z,12.17
2022-12-29T05:20:56.795Z,12.12
2022-12-29T05:23:22.958Z,12.09
2022-12-29T05:25:49.177Z,12.06
2022-12-29T05:28:15.350Z,12.09
2022-12-29T05:30:41.526Z,12.20
2022-12-29T05:33:07.771Z,12.09
2022-12-29T05:35:33.945Z,12.09
2022-12-29T05:38:00.159Z,12.04
2022-12-29T05:40:26.384Z,12.04
2022-12-29T05:42:52.582Z,12.02
2022-12-29T05:45:18.785Z,12.13
2022-12-29T05:47:44.917Z,12.02
2022-12-29T05:50:11.041Z,11.99
2022-12-29T05:52:37.241Z,11.99
2022-12-29T05:55:03.403Z,11.90
2022-12-29T05:57:29.553Z,11.90
2022-12-29T05:59:55.681Z,11.93
2022-12-29T06:02:21.980Z,11.88
2022-12-29T06:04:48.246Z,11.90
2022-12-29T06:07:14.409Z,11.83
2022-12-29T06:09:40.554Z,11.86
2022-12-29T06:12:06.702Z,11.86
2022-12-29T06:14:32.835Z,11.86
2022-12-29T06:16:59.003Z,11.78
2022-12-29T06:19:25.145Z,11.82
2022-12-29T06:21:51.327Z,11.75
2022-12-29T06:24:17.492Z,11.74
2022-12-29T06:26:43.683Z,11.76
2022-12-29T06:29:09.809Z,11.71
2022-12-29T06:31:36.007Z,11.82
2022-12-29T06:34:07.960Z,11.87
2022-12-29T06:36:34.555Z,11.83
2022-12-29T06:39:00.719Z,11.90
2022-12-29T06:41:31.962Z,11.78
2022-12-29T06:43:58.669Z,11.85
2022-12-29T06:46:24.840Z,11.85
2022-12-29T06:48:51.031Z,11.93
2022-12-29T06:51:17.223Z,11.87
2022-12-29T06:53:43.598Z,11.93
2022-12-29T06:56:09.747Z,11.94
2022-12-29T06:58:35.877Z,11.90
2022-12-29T07:01:02.164Z,11.90
2022-12-29T07:03:28.367Z,11.98
2022-12-29T07:05:54.623Z,12.02
2022-12-29T07:08:20.816Z,11.91
2022-12-29T07:10:46.951Z,11.96
2022-12-29T07:13:13.080Z,11.98
2022-12-29T07:15:39.238Z,12.05
2022-12-29T07:18:05.357Z,12.01
2022-12-29T07:20:31.505Z,12.16
2022-12-29T07:22:57.784Z,12.13
2022-12-29T07:25:23.937Z,12.06
2022-12-29T07:27:50.076Z,12.02
2022-12-29T07:30:16.212Z,11.97
2022-12-29T07:32:43.587Z,11.93
2022-12-29T07:35:09.783Z,11.92
2022-12-29T07:37:35.953Z,11.92
2022-12-29T07:40:02.086Z,11.89
2022-12-29T07:42:28.246Z,11.85
2022-12-29T07:44:54.414Z,11.87
2022-12-29T07:47:20.542Z,12.00
2022-12-29T07:49:46.737Z,12.03
2022-12-29T07:52:12.904Z,12.07
2022-12-29T07:54:40.082Z,12.03
2022-12-29T07:57:06.276Z,12.01
2022-12-29T07:59:32.435Z,12.02
2022-12-29T08:01:58.686Z,12.00
2022-12-29T08:04:24.966Z,12.07
2022-12-29T08:06:51.151Z,12.14
2022-12-29T08:09:22.252Z,12.07
2022-12-29T08:11:48.971Z,12.11
2022-12-29T08:14:15.131Z,12.17
2022-12-29T08:16:41.296Z,12.20
2022-12-29T08:19:09.796Z,12.23
2022-12-29T08:21:35.947Z,12.24
2022-12-29T08:24:02.103Z,12.25
2022-12-29T08:26:28.301Z,12.28
2022-12-29T08:28:54.442Z,12.36
2022-12-29T08:31:20.657Z,12.32
2022-12-29T08:33:46.912Z,12.38
2022-12-29T08:36:13.105Z,12.39
2022-12-29T08:38:39.281Z,12.36
2022-12-29T08:41:05.480Z,12.41
2022-12-29T08:43:31.667Z,12.45
2022-12-29T08:45:57.916Z,12.53
2022-12-29T08:48:24.157Z,12.66
2022-12-29T08:50:50.329Z,12.87
2022-12-29T08:53:16.726Z,12.87
2022-12-29T08:55:42.915Z,12.84
2022-12-29T08:58:09.109Z,12.87
2022-12-29T09:00:35.270Z,12.75
2022-12-29T09:03:01.541Z,12.65
2022-12-29T09:05:27.864Z,12.64
2022-12-29T09:07:54.035Z,12.64
2022-12-29T09:10:20.152Z,12.72
2022-12-29T09:12:46.411Z,12.69
2022-12-29T09:15:12.586Z,12.72
2022-12-29T09:17:38.732Z,12.69
2022-12-29T09:20:04.923Z,12.73
2022-12-29T09:22:31.065Z,12.87
2022-12-29T09:24:57.218Z,12.81
2022-12-29T09:27:23.386Z,12.92
2022-12-29T09:29:50.327Z,12.82
2022-12-29T09:32:18.713Z,12.85
2022-12-29T09:34:45.568Z,12.92
2022-12-29T09:37:11.696Z,13.08
2022-12-29T09:39:37.860Z,13.19
2022-12-29T09:42:04.041Z,13.21
2022-12-29T09:44:30.185Z,13.10
2022-12-29T09:46:56.475Z,13.09
2022-12-29T09:49:22.793Z,13.09
2022-12-29T09:51:49.435Z,12.97
2022-12-29T09:54:15.603Z,12.87
2022-12-29T09:56:41.772Z,12.81
2022-12-29T09:59:07.949Z,12.77
2022-12-29T10:01:34.170Z,12.81
2022-12-29T10:04:00.392Z,12.90
2022-12-29T10:06:26.585Z,12.90
2022-12-29T10:08:52.910Z,13.03
2022-12-29T10:11:19.137Z,13.21
2022-12-29T10:13:45.322Z,13.35
2022-12-29T10:16:11.524Z,13.54
2022-12-29T10:18:37.796Z,13.54
2022-12-29T10:21:03.989Z,13.65
2022-12-29T10:23:30.194Z,13.45
2022-12-29T10:25:56.407Z,13.31
2022-12-29T10:28:22.555Z,13.34
2022-12-29T10:30:48.781Z,13.39
2022-12-29T10:33:14.938Z,13.44
2022-12-29T10:35:41.470Z,13.48
2022-12-29T10:38:07.707Z,13.42
2022-12-29T10:40:33.866Z,13.44
2022-12-29T10:43:00.192Z,13.38
2022-12-29T10:45:26.407Z,13.36
2022-12-29T10:47:55.619Z,13.34
2022-12-29T10:50:21.776Z,13.33
2022-12-29T10:52:47.922Z,13.37
2022-12-29T10:55:14.110Z,13.39
2022-12-29T10:57:40.239Z,13.36
2022-12-29T11:00:06.449Z,13.31
2022-12-29T11:02:32.731Z,13.49
2022-12-29T11:04:58.921Z,13.55
2022-12-29T11:07:27.291Z,14.06
2022-12-29T11:09:53.749Z,14.67
2022-12-29T11:12:19.890Z,15.67
2022-12-29T11:14:46.078Z,16.67
2022-12-29T11:17:12.277Z,16.10
2022-12-29T11:19:41.069Z,16.84
2022-12-29T11:22:07.522Z,16.03
2022-12-29T11:24:33.701Z,16.03
2022-12-29T11:26:59.829Z,15.22
2022-12-29T11:29:26.037Z,14.52
2022-12-29T11:31:52.251Z,14.30
2022-12-29T11:34:18.426Z,14.07
2022-12-29T11:36:44.567Z,13.95
2022-12-29T11:39:13.973Z,13.89
2022-12-29T11:41:40.467Z,13.84
2022-12-29T11:44:06.648Z,13.84
2022-12-29T11:46:32.869Z,13.83
2022-12-29T11:48:59.066Z,13.76
2022-12-29T11:51:25.517Z,13.71
2022-12-29T11:53:51.769Z,13.69
2022-12-29T11:56:17.942Z,13.65
2022-12-29T11:58:44.088Z,13.53
2022-12-29T12:01:10.243Z,13.36
2022-12-29T12:03:36.576Z,13.08
2022-12-29T12:06:02.845Z,12.83
2022-12-29T12:08:28.986Z,12.84
2022-12-29T12:10:55.160Z,12.95
2022-12-29T12:13:21.339Z,13.11
2022-12-29T12:15:50.137Z,13.21
2022-12-29T12:18:20.582Z,13.22
2022-12-29T12:20:46.795Z,13.24
2022-12-29T12:23:12.976Z,13.19
2022-12-29T12:25:39.107Z,13.14
2022-12-29T12:28:05.342Z,13.14
2022-12-29T12:30:31.545Z,13.25
2022-12-29T12:32:57.687Z,13.27
2022-12-29T12:35:23.865Z,13.27
2022-12-29T12:37:50.519Z,13.20
2022-12-29T12:40:16.650Z,13.14
2022-12-29T12:42:42.809Z,13.04
2022-12-29T12:45:09.001Z,13.01
2022-12-29T12:47:35.124Z,12.95
2022-12-29T12:50:01.261Z,12.83
2022-12-29T12:52:27.426Z,12.43
2022-12-29T12:54:53.610Z,12.02
2022-12-29T12:57:19.799Z,11.75
2022-12-29T12:59:45.978Z,11.54
2022-12-29T13:02:12.218Z,11.34
2022-12-29T13:04:38.469Z,11.25
2022-12-29T13:07:04.647Z,11.22
2022-12-29T13:09:30.852Z,11.12
2022-12-29T13:11:57.046Z,11.21
2022-12-29T13:14:23.247Z,11.31
2022-12-29T13:16:49.467Z,11.29
2022-12-29T13:19:15.668Z,11.33
2022-12-29T13:21:41.802Z,11.42
2022-12-29T13:24:08.009Z,11.47
2022-12-29T13:26:34.199Z,11.50
2022-12-29T13:29:00.428Z,11.39
2022-12-29T13:31:26.662Z,11.35
2022-12-29T13:33:52.870Z,11.24
2022-12-29T13:36:19.085Z,11.12
2022-12-29T13:38:45.288Z,11.06
2022-12-29T13:41:11.521Z,11.04
2022-12-29T13:43:37.704Z,10.91
2022-12-29T13:46:03.955Z,10.90
2022-12-29T13:48:30.137Z,10.82
2022-12-29T13:50:56.350Z,10.79
2022-12-29T13:53:22.557Z,10.73
2022-12-29T13:55:48.785Z,10.74
2022-12-29T13:58:14.944Z,10.70
2022-12-29T14:00:41.129Z,10.83
2022-12-29T14:03:07.705Z,10.84
2022-12-29T14:05:34.091Z,10.81
2022-12-29T14:08:00.216Z,10.80
2022-12-29T14:10:26.416Z,10.78
2022-12-29T14:12:52.584Z,10.73
2022-12-29T14:15:18.800Z,10.70
2022-12-29T14:17:46.023Z,10.67
2022-12-29T14:20:12.244Z,10.70
2022-12-29T14:22:38.388Z,10.60
2022-12-29T14:25:04.573Z,10.54
2022-12-29T14:27:30.782Z,10.50
2022-12-29T14:29:56.965Z,10.51
2022-12-29T14:32:23.123Z,10.57
2022-12-29T14:34:52.646Z,10.50
2022-12-29T14:37:19.131Z,10.41
2022-12-29T14:39:45.302Z,10.26
2022-12-29T14:42:11.477Z,10.23
2022-12-29T14:44:37.632Z,10.16
2022-12-29T14:47:03.844Z,10.07
2022-12-29T14:49:30.087Z,10.03
2022-12-29T14:51:56.262Z,10.01
2022-12-29T14:54:22.429Z,9.91
2022-12-29T14:56:48.629Z,9.87
2022-12-29T14:59:14.820Z,9.78
2022-12-29T15:01:41.149Z,9.82
2022-12-29T15:04:07.498Z,9.83
2022-12-29T15:06:33.648Z,9.71
2022-12-29T15:08:59.840Z,9.74
2022-12-29T15:11:26.019Z,9.71
2022-12-29T15:13:52.187Z,9.68
2022-12-29T15:16:18.359Z,9.69
2022-12-29T15:18:44.532Z,9.62
2022-12-29T15:21:10.730Z,9.73
2022-12-29T15:23:36.854Z,9.69
2022-12-29T15:26:03.041Z,9.63
2022-12-29T15:28:29.249Z,9.61
2022-12-29T15:30:55.413Z,9.58
2022-12-29T15:33:21.540Z,9.56
2022-12-29T15:35:47.730Z,9.53
2022-12-29T15:38:13.910Z,9.34
2022-12-29T15:40:40.059Z,9.23
2022-12-29T15:43:06.208Z,9.05
2022-12-29T15:45:32.362Z,8.90
2022-12-29T15:47:58.557Z,8.77
2022-12-29T15:50:24.670Z,8.67
2022-12-29T15:52:50.890Z,8.62
2022-12-29T15:55:17.087Z,8.63
2022-12-29T15:57:43.204Z,8.61
2022-12-29T16:00:09.357Z,8.64
2022-12-29T16:02:36.056Z,8.64
2022-12-29T16:05:17.155Z,8.64
2022-12-29T16:07:44.086Z,8.67
2022-12-29T16:10:10.334Z,8.66
2022-12-29T16:12:36.484Z,8.69
2022-12-29T16:15:02.671Z,8.73
2022-12-29T16:17:28.796Z,8.78
2022-12-29T16:19:54.951Z,8.81
2022-12-29T16:22:21.100Z,8.81
2022-12-29T16:24:47.277Z,8.82
2022-12-29T16:27:13.438Z,8.85
2022-12-29T16:29:39.616Z,8.84
2022-12-29T16:32:05.787Z,8.83
2022-12-29T16:34:31.966Z,8.86
2022-12-29T16:36:58.125Z,8.88
2022-12-29T16:39:24.273Z,8.89
2022-12-29T16:41:50.436Z,8.92
2022-12-29T16:44:16.606Z,8.87
2022-12-29T16:46:42.753Z,8.86
2022-12-29T16:49:08.895Z,8.85
2022-12-29T16:51:35.021Z,8.85
2022-12-29T16:54:01.265Z,8.83
2022-12-29T16:56:27.440Z,8.85
2022-12-29T16:58:53.581Z,8.91
2022-12-29T17:01:20.031Z,9.01
2022-12-29T17:03:46.569Z,9.03
2022-12-29T17:06:12.787Z,9.03
2022-12-29T17:08:38.963Z,8.97
2022-12-29T17:11:05.106Z,8.93
2022-12-29T17:13:31.308Z,8.96
2022-12-29T17:15:57.495Z,8.98
2022-12-29T17:18:23.724Z,8.97
2022-12-29T17:20:49.991Z,9.03
2022-12-29T17:23:21.132Z,8.99
2022-12-29T17:25:48.879Z,8.96
2022-12-29T17:28:15.112Z,8.96
2022-12-29T17:30:41.346Z,8.99
2022-12-29T17:33:07.640Z,8.95
2022-12-29T17:35:33.780Z,9.00
2022-12-29T17:37:59.945Z,9.03
2022-12-29T17:40:26.108Z,9.01
2022-12-29T17:42:52.283Z,9.05
2022-12-29T17:45:18.432Z,9.14
2022-12-29T17:47:44.622Z,9.10
2022-12-29T17:50:10.806Z,9.07
2022-12-29T17:52:36.973Z,9.07
2022-12-29T17:55:03.108Z,9.08
2022-12-29T17:57:29.294Z,9.07
2022-12-29T17:59:55.468Z,9.06
2022-12-29T18:02:21.944Z,9.13
2022-12-29T18:04:48.226Z,9.14
2022-12-29T18:07:14.372Z,9.18
2022-12-29T18:09:40.619Z,9.19
2022-12-29T18:12:06.807Z,9.15
2022-12-29T18:14:32.984Z,9.14
2022-12-29T18:16:59.207Z,8.94
2022-12-29T18:19:26.903Z,9.02
2022-12-29T18:21:55.877Z,8.96
2022-12-29T18:24:22.033Z,8.98
2022-12-29T18:26:48.218Z,8.85
2022-12-29T18:29:14.412Z,8.81
2022-12-29T18:31:40.714Z,8.75
2022-12-29T18:34:06.866Z,8.80
2022-12-29T18:36:32.999Z,8.62
2022-12-29T18:38:59.168Z,8.70
2022-12-29T18:41:25.341Z,8.69
2022-12-29T18:43:51.535Z,8.64
2022-12-29T18:46:22.730Z,8.61
2022-12-29T18:48:49.713Z,8.57
2022-12-29T18:51:15.927Z,8.63
2022-12-29T18:53:42.054Z,8.60
2022-12-29T18:56:08.272Z,8.61
2022-12-29T18:58:34.473Z,8.61
2022-12-29T19:01:00.658Z,8.69
2022-12-29T19:03:29.217Z,8.69
2022-12-29T19:05:57.441Z,8.76
2022-12-29T19:08:23.621Z,8.75
2022-12-29T19:10:49.805Z,8.74
2022-12-29T19:13:16.033Z,8.78
2022-12-29T19:15:42.238Z,8.73
2022-12-29T19:18:42.574Z,8.73
2022-12-29T19:20:54.609Z,8.69
2022-12-29T19:23:20.810Z,8.68
2022-12-29T19:25:47.089Z,8.69
2022-12-29T19:28:13.358Z,8.64
2022-12-29T19:30:39.540Z,8.61
2022-12-29T19:33:09.831Z,8.67
2022-12-29T19:35:36.416Z,8.66
2022-12-29T19:38:02.579Z,8.69
2022-12-29T19:40:28.740Z,8.66
2022-12-29T19:42:54.924Z,8.68
2022-12-29T19:45:21.116Z,8.74
2022-12-29T19:47:47.301Z,8.77
2022-12-29T19:50:13.474Z,8.74
2022-12-29T19:52:39.627Z,8.75
2022-12-29T19:55:05.815Z,8.76
2022-12-29T19:57:32.032Z,8.72
2022-12-29T19:59:59.545Z,8.62
2022-12-29T20:02:25.845Z,8.59
2022-12-29T20:04:52.321Z,8.61
2022-12-29T20:07:18.531Z,8.61
2022-12-29T20:09:44.844Z,8.58
2022-12-29T20:12:11.023Z,8.57
2022-12-29T20:14:37.234Z,8.50
2022-12-29T20:17:11.365Z,8.45
2022-12-29T20:19:38.090Z,8.53
2022-12-29T20:22:04.273Z,8.38
2022-12-29T20:24:30.470Z,8.42
2022-12-29T20:26:56.677Z,8.49
2022-12-29T20:29:24.322Z,8.46
2022-12-29T20:31:53.729Z,8.50
2022-12-29T20:34:20.091Z,8.43
2022-12-29T20:36:46.309Z,8.48
2022-12-29T20:39:12.517Z,8.54
2022-12-29T20:41:38.728Z,8.52
2022-12-29T20:44:04.926Z,8.48
2022-12-29T20:46:41.239Z,8.49
2022-12-29T20:49:09.577Z,8.41
2022-12-29T20:52:04.360Z,8.37
2022-12-29T20:54:21.966Z,8.37
2022-12-29T20:56:48.127Z,8.36
2022-12-29T20:59:29.797Z,8.35
2022-12-29T21:01:56.122Z,8.36
2022-12-29T21:04:22.510Z,8.41
2022-12-29T21:06:48.654Z,8.43
2022-12-29T21:09:14.805Z,8.39
2022-12-29T21:11:40.926Z,8.43
2022-12-29T21:14:07.094Z,8.53
2022-12-29T21:16:33.338Z,8.65
2022-12-29T21:18:59.576Z,8.61
2022-12-29T21:21:25.761Z,8.59
2022-12-29T21:23:51.954Z,8.56
2022-12-29T21:26:18.133Z,8.58
2022-12-29T21:28:44.442Z,8.60
2022-12-29T21:31:10.661Z,8.56
2022-12-29T21:33:36.900Z,8.60
2022-12-29T21:36:03.126Z,8.51
2022-12-29T21:38:29.367Z,8.65
2022-12-29T21:40:55.593Z,8.63
2022-12-29T21:43:21.786Z,8.64
2022-12-29T21:45:48.002Z,8.68
2022-12-29T21:48:14.316Z,8.54
2022-12-29T21:50:40.517Z,8.57
2022-12-29T21:53:06.665Z,8.62
2022-12-29T21:55:40.003Z,8.59
2022-12-29T21:58:10.378Z,8.58
2022-12-29T22:00:36.561Z,8.51
2022-12-29T22:03:02.852Z,8.48
2022-12-29T22:05:29.074Z,8.48
2022-12-29T22:07:55.189Z,8.48
2022-12-29T22:10:21.316Z,8.44
2022-12-29T22:12:47.503Z,8.43
2022-12-29T22:15:13.678Z,8.46
2022-12-29T22:17:44.972Z,8.49
2022-12-29T22:20:15.504Z,8.50
2022-12-29T22:22:41.637Z,8.49
2022-12-29T22:25:07.797Z,8.54
2022-12-29T22:27:33.956Z,8.55
2022-12-29T22:30:02.584Z,8.50
2022-12-29T22:32:28.759Z,8.50
2022-12-29T22:34:54.898Z,8.45
2022-12-29T22:40:02.141Z,8.58
2022-12-29T22:42:28.264Z,8.55
2022-12-29T22:44:54.461Z,8.50
2022-12-29T22:47:20.670Z,8.41
2022-12-29T22:49:47.044Z,8.30
2022-12-29T22:52:14.497Z,8.35
2022-12-29T22:54:40.775Z,8.41
2022-12-29T22:57:06.981Z,8.46
2022-12-29T22:59:33.195Z,8.46
2022-12-29T23:01:59.377Z,8.38
2022-12-29T23:05:01.398Z,8.37
2022-12-29T23:07:11.797Z,8.32
2022-12-29T23:09:37.999Z,8.30
2022-12-29T23:12:04.188Z,8.34
2022-12-29T23:14:30.363Z,8.22
2022-12-29T23:16:56.526Z,8.23
2022-12-29T23:19:22.655Z,8.27
2022-12-29T23:21:48.809Z,8.28
2022-12-29T23:24:14.995Z,8.41
2022-12-29T23:26:41.180Z,8.40
2022-12-29T23:29:07.382Z,8.34
2022-12-29T23:31:33.587Z,8.29
2022-12-29T23:33:59.747Z,8.15
2022-12-29T23:36:25.921Z,8.10
2022-12-29T23:38:52.123Z,7.98
2022-12-29T23:41:18.306Z,7.98
2022-12-29T23:43:44.433Z,7.89
2022-12-29T23:46:10.725Z,7.88
2022-12-29T23:48:36.935Z,7.82
2022-12-29T23:51:03.064Z,7.70
2022-12-29T23:53:29.215Z,7.55
2022-12-29T23:55:55.367Z,7.46
2022-12-29T23:58:21.535Z,7.48
